createdAt,value
2023-02-14T00:00:43.170Z,5.60
2023-02-14T00:03:10.190Z,5.70
2023-02-14T00:05:37.208Z,5.70
2023-02-14T00:08:04.155Z,5.70
2023-02-14T00:10:31.083Z,5.60
2023-02-14T00:12:58.011Z,5.70
2023-02-14T00:15:25.580Z,5.70
2023-02-14T00:17:54.812Z,5.70
2023-02-14T00:20:22.394Z,5.70
2023-02-14T00:22:49.851Z,5.60
2023-02-14T00:25:17.312Z,5.70
2023-02-14T00:27:44.283Z,5.60
2023-02-14T00:30:12.461Z,5.60
2023-02-14T00:32:40.284Z,5.70
2023-02-14T00:35:08.298Z,5.70
2023-02-14T00:37:35.602Z,5.70
2023-02-14T00:40:02.606Z,5.60
2023-02-14T00:42:29.595Z,5.60
2023-02-14T00:44:56.547Z,5.70
2023-02-14T00:47:23.591Z,5.70
2023-02-14T00:49:52.103Z,5.60
2023-02-14T00:52:19.316Z,5.60
2023-02-14T00:54:46.257Z,5.50
2023-02-14T00:57:14.412Z,5.60
2023-02-14T00:59:41.359Z,5.60
2023-02-14T01:02:08.342Z,5.60
2023-02-14T01:04:35.307Z,5.60
2023-02-14T01:07:02.255Z,5.60
2023-02-14T01:09:29.182Z,5.60
2023-02-14T01:11:56.353Z,5.60
2023-02-14T01:14:23.323Z,5.50
2023-02-14T01:16:50.337Z,5.50
2023-02-14T01:19:17.228Z,5.50
2023-02-14T01:21:44.343Z,5.50
2023-02-14T01:24:11.993Z,5.50
2023-02-14T01:26:39.515Z,5.50
2023-02-14T01:29:06.843Z,5.50
2023-02-14T01:31:35.039Z,5.40
2023-02-14T01:34:02.615Z,5.50
2023-02-14T01:36:37.014Z,5.50
2023-02-14T01:39:05.763Z,5.50
2023-02-14T01:41:34.376Z,5.50
2023-02-14T01:44:03.729Z,5.50
2023-02-14T01:46:32.526Z,5.50
2023-02-14T01:49:02.630Z,5.40
2023-02-14T01:51:30.405Z,5.40
2023-02-14T01:53:57.944Z,5.40
2023-02-14T01:56:30.486Z,5.40
2023-02-14T01:58:59.156Z,5.40
2023-02-14T02:01:26.837Z,5.30
2023-02-14T02:03:55.847Z,5.30
2023-02-14T02:06:26.343Z,5.30
2023-02-14T02:09:07.142Z,5.30
2023-02-14T02:11:34.814Z,5.30
2023-02-14T02:14:02.259Z,5.40
2023-02-14T02:16:48.041Z,5.30
2023-02-14T02:19:35.211Z,5.30
2023-02-14T02:22:20.407Z,5.30
2023-02-14T02:25:02.161Z,5.30
2023-02-14T02:27:49.405Z,5.30
2023-02-14T02:30:35.806Z,5.30
2023-02-14T02:33:08.904Z,5.20
2023-02-14T02:35:40.591Z,5.20
2023-02-14T02:38:16.555Z,5.30
2023-02-14T02:40:56.283Z,5.30
2023-02-14T02:43:48.323Z,5.20
2023-02-14T02:46:43.180Z,5.20
2023-02-14T02:49:10.148Z,5.30
2023-02-14T02:52:03.788Z,5.30
2023-02-14T02:54:36.869Z,5.30
2023-02-14T02:57:07.775Z,5.20
2023-02-14T02:59:40.653Z,5.20
2023-02-14T03:02:11.680Z,5.20
2023-02-14T03:04:53.217Z,5.20
2023-02-14T03:07:35.514Z,5.20
2023-02-14T03:10:19.217Z,5.00
2023-02-14T03:12:51.446Z,5.10
2023-02-14T03:15:27.742Z,5.20
2023-02-14T03:18:32.495Z,5.20
2023-02-14T03:21:00.755Z,5.20
2023-02-14T03:23:29.918Z,5.20
2023-02-14T03:26:03.089Z,5.20
2023-02-14T03:28:33.196Z,5.20
2023-02-14T03:31:09.383Z,5.20
2023-02-14T03:33:54.853Z,5.20
2023-02-14T03:36:42.112Z,5.20
2023-02-14T03:39:14.316Z,5.20
2023-02-14T03:41:45.990Z,5.20
2023-02-14T03:44:17.325Z,5.20
2023-02-14T03:46:52.072Z,5.10
2023-02-14T03:49:22.148Z,5.10
2023-02-14T03:51:50.476Z,5.10
2023-02-14T03:54:18.494Z,5.00
2023-02-14T03:56:47.968Z,5.00
2023-02-14T03:59:17.051Z,5.00
2023-02-14T04:01:47.167Z,5.00
2023-02-14T04:04:15.624Z,5.10
2023-02-14T04:06:42.575Z,5.10
2023-02-14T04:09:09.587Z,5.00
2023-02-14T04:11:38.613Z,5.00
2023-02-14T04:14:06.074Z,5.00
2023-02-14T04:16:52.975Z,5.00
2023-02-14T04:19:22.882Z,5.00
2023-02-14T04:21:50.735Z,5.00
2023-02-14T04:24:17.995Z,4.90
2023-02-14T04:26:54.314Z,5.00
2023-02-14T04:29:21.536Z,5.00
2023-02-14T04:31:48.668Z,4.40
2023-02-14T04:34:15.708Z,5.00
2023-02-14T04:36:42.609Z,4.90
2023-02-14T04:39:09.531Z,4.90
2023-02-14T04:41:36.573Z,4.90
2023-02-14T04:44:03.511Z,4.90
2023-02-14T04:46:30.486Z,4.80
2023-02-14T04:48:57.438Z,4.90
2023-02-14T04:51:26.151Z,4.90
2023-02-14T04:53:54.330Z,4.90
2023-02-14T04:56:21.262Z,4.90
2023-02-14T04:58:48.208Z,4.90
2023-02-14T05:01:15.289Z,4.90
2023-02-14T05:03:42.229Z,4.90
2023-02-14T05:06:09.203Z,4.90
2023-02-14T05:08:36.141Z,4.90
2023-02-14T05:11:03.125Z,4.90
2023-02-14T05:13:30.111Z,4.90
2023-02-14T05:15:57.106Z,4.90
2023-02-14T05:18:24.130Z,4.80
2023-02-14T05:20:51.561Z,4.90
2023-02-14T05:23:18.524Z,4.90
2023-02-14T05:25:47.473Z,4.90
2023-02-14T05:28:14.403Z,4.90
2023-02-14T05:30:41.522Z,4.80
2023-02-14T05:33:08.530Z,4.80
2023-02-14T05:35:35.551Z,4.80
2023-02-14T05:38:02.605Z,4.80
2023-02-14T05:40:29.642Z,4.80
2023-02-14T05:42:56.632Z,4.80
2023-02-14T05:45:23.655Z,4.70
2023-02-14T05:47:50.698Z,4.70
2023-02-14T05:50:18.408Z,4.70
2023-02-14T05:52:45.381Z,4.80
2023-02-14T05:55:12.447Z,4.70
2023-02-14T05:57:39.405Z,4.50
2023-02-14T06:00:07.538Z,4.70
2023-02-14T06:02:39.138Z,4.80
2023-02-14T06:05:06.401Z,4.80
2023-02-14T06:07:33.308Z,4.80
2023-02-14T06:10:00.300Z,4.80
2023-02-14T06:12:27.230Z,4.70
2023-02-14T06:14:54.161Z,4.80
2023-02-14T06:17:21.079Z,4.80
2023-02-14T06:19:48.047Z,4.80
2023-02-14T06:22:14.986Z,4.80
2023-02-14T06:24:41.888Z,4.80
2023-02-14T06:27:08.845Z,4.70
2023-02-14T06:29:35.858Z,4.80
2023-02-14T06:32:07.107Z,4.80
2023-02-14T06:34:34.685Z,4.80
2023-02-14T06:37:01.626Z,4.80
2023-02-14T06:39:28.609Z,4.80
2023-02-14T06:41:55.596Z,4.80
2023-02-14T06:44:22.619Z,4.70
2023-02-14T06:46:49.581Z,4.70
2023-02-14T06:49:18.486Z,4.80
2023-02-14T06:51:45.383Z,4.80
2023-02-14T06:54:12.413Z,4.80
2023-02-14T06:56:39.314Z,4.90
2023-02-14T06:59:06.533Z,4.80
2023-02-14T07:01:33.658Z,4.80
2023-02-14T07:04:00.677Z,4.90
2023-02-14T07:06:27.577Z,4.80
2023-02-14T07:08:54.585Z,4.80
2023-02-14T07:11:21.582Z,4.80
2023-02-14T07:13:49.549Z,4.80
2023-02-14T07:16:16.699Z,4.90
2023-02-14T07:18:43.634Z,4.90
2023-02-14T07:21:10.570Z,4.90
2023-02-14T07:23:37.470Z,4.90
2023-02-14T07:26:04.480Z,4.90
2023-02-14T07:28:31.471Z,4.90
2023-02-14T07:31:02.161Z,4.90
2023-02-14T07:33:29.500Z,5.00
2023-02-14T07:35:56.521Z,5.00
2023-02-14T07:38:24.568Z,5.00
2023-02-14T07:40:53.460Z,4.90
2023-02-14T07:43:20.412Z,5.00
2023-02-14T07:45:47.418Z,5.00
2023-02-14T07:48:14.351Z,5.00
2023-02-14T07:50:41.255Z,5.00
2023-02-14T07:53:11.319Z,5.00
2023-02-14T07:55:39.620Z,5.00
2023-02-14T07:58:06.857Z,5.00
2023-02-14T08:00:33.761Z,4.90
2023-02-14T08:03:00.725Z,5.00
2023-02-14T08:05:27.692Z,4.90
2023-02-14T08:07:54.731Z,5.00
2023-02-14T08:10:21.662Z,5.00
2023-02-14T08:13:00.754Z,5.00
2023-02-14T08:15:47.539Z,5.10
2023-02-14T08:18:15.163Z,5.10
2023-02-14T08:20:43.841Z,5.00
2023-02-14T08:23:10.936Z,5.00
2023-02-14T08:25:38.037Z,5.00
2023-02-14T08:28:05.588Z,5.10
2023-02-14T08:30:33.260Z,5.10
2023-02-14T08:33:00.298Z,5.10
2023-02-14T08:35:27.269Z,5.30
2023-02-14T08:37:54.278Z,5.20
2023-02-14T08:40:21.275Z,5.20
2023-02-14T08:42:48.631Z,5.20
2023-02-14T08:45:15.674Z,5.20
2023-02-14T08:47:42.634Z,5.30
2023-02-14T08:50:11.313Z,5.30
2023-02-14T08:52:41.755Z,5.40
2023-02-14T08:55:08.736Z,5.30
2023-02-14T08:57:35.757Z,5.30
2023-02-14T09:00:04.612Z,5.40
2023-02-14T09:02:31.631Z,5.30
2023-02-14T09:04:58.584Z,5.40
2023-02-14T09:07:25.807Z,5.40
2023-02-14T09:09:52.688Z,5.30
2023-02-14T09:12:19.715Z,5.40
2023-02-14T09:14:47.459Z,5.40
2023-02-14T09:17:15.318Z,5.30
2023-02-14T09:19:42.444Z,5.40
2023-02-14T09:22:10.229Z,5.50
2023-02-14T09:24:37.951Z,5.60
2023-02-14T09:27:05.403Z,5.50
2023-02-14T09:29:32.452Z,5.50
2023-02-14T09:32:00.181Z,5.60
2023-02-14T09:34:27.500Z,5.60
2023-02-14T09:36:54.666Z,5.50
2023-02-14T09:39:21.703Z,5.60
2023-02-14T09:42:03.972Z,5.50
2023-02-14T09:44:43.314Z,5.70
2023-02-14T09:47:20.654Z,5.70
2023-02-14T09:49:48.800Z,5.70
2023-02-14T09:52:17.772Z,5.70
2023-02-14T09:54:47.568Z,5.80
2023-02-14T09:57:22.290Z,5.70
2023-02-14T09:59:55.221Z,5.70
2023-02-14T10:02:32.845Z,5.80
2023-02-14T10:05:02.975Z,5.80
2023-02-14T10:07:29.884Z,5.80
2023-02-14T10:09:59.925Z,5.80
2023-02-14T10:12:29.730Z,5.80
2023-02-14T10:14:59.260Z,5.80
2023-02-14T10:17:35.530Z,5.90
2023-02-14T10:20:04.221Z,5.90
2023-02-14T10:22:46.067Z,6.00
2023-02-14T10:25:42.571Z,6.00
2023-02-14T10:28:11.951Z,6.00
2023-02-14T10:30:40.047Z,5.90
2023-02-14T10:33:17.755Z,6.00
2023-02-14T10:35:49.306Z,6.10
2023-02-14T10:38:17.582Z,6.00
2023-02-14T10:41:20.130Z,6.00
2023-02-14T10:44:09.148Z,6.00
2023-02-14T10:46:38.854Z,5.90
2023-02-14T10:49:24.535Z,6.00
2023-02-14T10:51:51.528Z,6.10
2023-02-14T10:54:21.445Z,6.10
2023-02-14T10:56:53.162Z,6.00
2023-02-14T10:59:25.214Z,5.90
2023-02-14T11:01:53.233Z,6.00
2023-02-14T11:04:21.733Z,6.10
2023-02-14T11:06:50.288Z,6.10
2023-02-14T11:09:17.701Z,6.10
2023-02-14T11:11:47.039Z,6.20
2023-02-14T11:14:25.937Z,6.20
2023-02-14T11:16:54.464Z,6.20
2023-02-14T11:19:37.268Z,6.20
2023-02-14T11:22:04.805Z,6.20
2023-02-14T11:24:34.107Z,6.20
2023-02-14T11:27:03.192Z,6.20
2023-02-14T11:29:31.530Z,6.10
2023-02-14T11:32:07.171Z,6.10
2023-02-14T11:34:54.168Z,6.20
2023-02-14T11:37:23.928Z,6.20
2023-02-14T11:39:51.335Z,6.20
2023-02-14T11:42:36.565Z,6.10
2023-02-14T11:45:05.355Z,6.30
2023-02-14T11:47:41.439Z,6.30
2023-02-14T11:50:22.361Z,6.40
2023-02-14T11:52:54.197Z,6.40
2023-02-14T11:55:29.459Z,6.40
2023-02-14T11:57:57.432Z,6.40
2023-02-14T12:00:27.016Z,6.30
2023-02-14T12:02:54.097Z,6.30
2023-02-14T12:05:21.057Z,6.30
2023-02-14T12:07:50.571Z,6.30
2023-02-14T12:10:19.271Z,6.40
2023-02-14T12:12:55.441Z,6.40
2023-02-14T12:15:40.475Z,6.40
2023-02-14T12:18:07.618Z,6.40
2023-02-14T12:20:43.778Z,6.50
2023-02-14T12:23:15.200Z,6.50
2023-02-14T12:25:54.661Z,6.60
2023-02-14T12:28:44.978Z,6.50
2023-02-14T12:31:12.236Z,6.50
2023-02-14T12:33:39.924Z,6.40
2023-02-14T12:36:33.907Z,6.40
2023-02-14T12:39:09.203Z,6.50
2023-02-14T12:41:49.066Z,6.40
2023-02-14T12:44:43.837Z,6.40
2023-02-14T12:47:10.804Z,6.40
2023-02-14T12:49:44.290Z,6.40
2023-02-14T12:52:23.420Z,6.40
2023-02-14T12:55:09.294Z,6.40
2023-02-14T12:57:59.195Z,6.40
2023-02-14T13:00:26.175Z,6.40
2023-02-14T13:03:11.492Z,6.30
2023-02-14T13:05:55.053Z,6.40
2023-02-14T13:08:37.248Z,6.40
2023-02-14T13:11:16.570Z,6.40
2023-02-14T13:13:52.009Z,6.30
2023-02-14T13:16:18.996Z,6.40
2023-02-14T13:18:48.894Z,6.40
2023-02-14T13:21:17.926Z,6.40
2023-02-14T13:23:46.619Z,6.40
2023-02-14T13:26:16.097Z,6.30
2023-02-14T13:28:58.327Z,6.40
2023-02-14T13:31:25.577Z,6.40
2023-02-14T13:33:55.572Z,6.30
2023-02-14T13:36:22.780Z,6.30
2023-02-14T13:38:51.645Z,6.20
2023-02-14T13:41:19.779Z,6.30
2023-02-14T13:43:57.381Z,5.90
2023-02-14T13:46:30.522Z,6.20
2023-02-14T13:48:59.383Z,6.20
2023-02-14T13:51:44.636Z,6.20
2023-02-14T13:54:27.043Z,6.20
2023-02-14T13:56:54.034Z,6.20
2023-02-14T13:59:32.560Z,6.20
2023-02-14T14:02:35.198Z,6.20
2023-02-14T14:05:22.119Z,6.20
2023-02-14T14:08:09.055Z,6.10
2023-02-14T14:10:46.517Z,6.20
2023-02-14T14:13:31.826Z,6.10
2023-02-14T14:16:17.534Z,6.00
2023-02-14T14:18:44.666Z,6.10
2023-02-14T14:21:15.922Z,6.10
2023-02-14T14:23:43.046Z,6.10
2023-02-14T14:26:28.866Z,6.10
2023-02-14T14:28:56.679Z,6.00
2023-02-14T14:31:23.788Z,6.00
2023-02-14T14:33:58.057Z,6.00
2023-02-14T14:36:26.024Z,6.00
2023-02-14T14:38:56.085Z,5.90
2023-02-14T14:41:28.586Z,5.90
2023-02-14T14:43:56.070Z,5.90
2023-02-14T14:46:23.681Z,6.00
2023-02-14T14:48:51.577Z,6.00
2023-02-14T14:51:34.058Z,6.00
2023-02-14T14:54:18.103Z,5.90
2023-02-14T14:56:52.822Z,5.90
2023-02-14T14:59:27.878Z,5.90
2023-02-14T15:01:55.003Z,5.80
2023-02-14T15:04:29.784Z,5.80
2023-02-14T15:06:57.909Z,5.50
2023-02-14T15:09:32.071Z,5.80
2023-02-14T15:12:19.625Z,5.80
2023-02-14T15:14:54.851Z,5.80
2023-02-14T15:17:24.271Z,5.80
2023-02-14T15:19:55.440Z,5.80
2023-02-14T15:22:26.988Z,5.80
2023-02-14T15:24:54.198Z,5.80
2023-02-14T15:27:22.504Z,5.80
2023-02-14T15:30:15.857Z,5.70
2023-02-14T15:32:42.843Z,5.70
2023-02-14T15:35:11.511Z,5.70
2023-02-14T15:37:38.614Z,5.70
2023-02-14T15:40:07.606Z,5.70
2023-02-14T15:42:40.486Z,5.60
2023-02-14T15:45:43.167Z,5.60
2023-02-14T15:48:15.545Z,5.60
2023-02-14T15:50:52.866Z,5.50
2023-02-14T15:53:19.759Z,5.50
2023-02-14T15:55:49.770Z,5.50
2023-02-14T15:58:29.821Z,5.50
2023-02-14T16:00:56.779Z,5.50
2023-02-14T16:03:25.845Z,5.50
2023-02-14T16:05:54.793Z,5.50
2023-02-14T16:08:29.465Z,5.50
2023-02-14T16:11:01.157Z,5.40
2023-02-14T16:13:35.361Z,5.40
2023-02-14T16:16:02.433Z,5.40
2023-02-14T16:18:39.980Z,5.40
2023-02-14T16:21:16.469Z,5.40
2023-02-14T16:23:44.894Z,5.40
2023-02-14T16:26:12.353Z,5.40
2023-02-14T16:28:41.059Z,5.30
2023-02-14T16:31:13.122Z,5.30
2023-02-14T16:33:40.666Z,5.40
2023-02-14T16:36:22.739Z,5.40
2023-02-14T16:38:50.865Z,5.40
2023-02-14T16:41:19.297Z,5.30
2023-02-14T16:43:46.892Z,5.30
2023-02-14T16:46:15.358Z,5.30
2023-02-14T16:48:43.183Z,5.20
2023-02-14T16:51:12.888Z,5.20
2023-02-14T16:53:40.585Z,5.20
2023-02-14T16:56:07.724Z,5.20
2023-02-14T16:58:36.355Z,5.20
2023-02-14T17:01:03.662Z,5.20
2023-02-14T17:03:30.739Z,5.10
2023-02-14T17:05:58.271Z,5.20
2023-02-14T17:08:25.318Z,5.20
2023-02-14T17:10:52.467Z,5.20
2023-02-14T17:13:20.646Z,5.10
2023-02-14T17:15:48.084Z,5.10
2023-02-14T17:18:15.775Z,5.10
2023-02-14T17:20:42.784Z,5.00
2023-02-14T17:23:09.790Z,5.00
2023-02-14T17:25:36.852Z,5.00
2023-02-14T17:28:03.901Z,5.00
2023-02-14T17:30:31.108Z,4.90
2023-02-14T17:32:58.200Z,5.00
2023-02-14T17:35:25.423Z,4.90
2023-02-14T17:37:52.414Z,4.90
2023-02-14T17:40:19.481Z,4.90
2023-02-14T17:42:46.458Z,4.90
2023-02-14T17:45:13.578Z,4.80
2023-02-14T17:47:41.136Z,4.80
2023-02-14T17:50:08.367Z,4.70
2023-02-14T17:52:35.296Z,4.80
2023-02-14T17:55:02.301Z,4.70
2023-02-14T17:57:29.392Z,4.80
2023-02-14T17:59:58.213Z,4.70
2023-02-14T18:02:25.436Z,4.50
2023-02-14T18:04:52.890Z,4.60
2023-02-14T18:07:19.867Z,4.60
2023-02-14T18:09:46.991Z,4.60
2023-02-14T18:12:15.171Z,4.60
2023-02-14T18:14:42.881Z,4.60
2023-02-14T18:17:11.727Z,4.60
2023-02-14T18:19:38.960Z,4.50
2023-02-14T18:22:05.886Z,4.50
2023-02-14T18:24:32.870Z,4.50
2023-02-14T18:26:59.869Z,4.50
2023-02-14T18:29:26.812Z,4.50
2023-02-14T18:31:54.386Z,4.50
2023-02-14T18:34:21.491Z,4.40
2023-02-14T18:36:48.466Z,4.40
2023-02-14T18:39:15.621Z,4.40
2023-02-14T18:41:42.756Z,4.40
2023-02-14T18:44:09.891Z,4.40
2023-02-14T18:46:36.931Z,4.40
2023-02-14T18:49:06.012Z,4.40
2023-02-14T18:51:34.414Z,4.40
2023-02-14T18:54:02.711Z,4.40
2023-02-14T18:56:31.197Z,4.40
2023-02-14T18:58:59.353Z,4.40
2023-02-14T19:01:29.386Z,4.40
2023-02-14T19:03:57.116Z,4.40
2023-02-14T19:06:24.081Z,4.40
2023-02-14T19:08:51.387Z,4.30
2023-02-14T19:11:23.460Z,4.30
2023-02-14T19:13:52.206Z,4.30
2023-02-14T19:16:20.763Z,4.40
2023-02-14T19:18:49.952Z,4.30
2023-02-14T19:21:20.269Z,4.30
2023-02-14T19:23:48.379Z,4.20
2023-02-14T19:26:17.111Z,4.20
2023-02-14T19:28:44.748Z,4.30
2023-02-14T19:31:12.042Z,4.30
2023-02-14T19:33:40.615Z,4.20
2023-02-14T19:36:09.415Z,4.20
2023-02-14T19:38:36.409Z,4.10
2023-02-14T19:41:03.490Z,4.10
2023-02-14T19:43:30.580Z,4.10
2023-02-14T19:45:57.635Z,4.00
2023-02-14T19:48:24.769Z,4.00
2023-02-14T19:50:52.518Z,4.00
2023-02-14T19:53:19.555Z,4.00
2023-02-14T19:55:46.964Z,3.90
2023-02-14T19:58:14.617Z,3.90
2023-02-14T20:00:41.970Z,3.90
2023-02-14T20:03:08.891Z,3.90
2023-02-14T20:05:37.350Z,3.90
2023-02-14T20:08:04.559Z,3.80
2023-02-14T20:10:31.498Z,3.80
2023-02-14T20:13:00.108Z,3.70
2023-02-14T20:15:29.141Z,3.60
2023-02-14T20:17:57.223Z,3.60
2023-02-14T20:20:24.262Z,3.50
2023-02-14T20:22:51.282Z,3.40
2023-02-14T20:25:18.342Z,3.10
2023-02-14T20:27:45.857Z,3.30
2023-02-14T20:30:13.042Z,3.30
2023-02-14T20:32:40.041Z,3.20
2023-02-14T20:35:07.684Z,3.20
2023-02-14T20:37:35.713Z,3.20
2023-02-14T20:40:03.530Z,3.20
2023-02-14T20:42:30.594Z,3.10
2023-02-14T20:44:57.636Z,3.10
2023-02-14T20:47:24.656Z,3.10
2023-02-14T20:49:51.564Z,3.10
2023-02-14T20:52:18.900Z,3.10
2023-02-14T20:54:46.021Z,3.10
2023-02-14T20:57:13.073Z,3.00
2023-02-14T20:59:44.777Z,3.00
2023-02-14T21:02:12.101Z,3.10
2023-02-14T21:04:39.466Z,3.00
2023-02-14T21:07:09.018Z,3.00
2023-02-14T21:09:37.959Z,3.00
2023-02-14T21:12:06.583Z,3.00
2023-02-14T21:14:34.830Z,3.10
2023-02-14T21:17:01.898Z,3.10
2023-02-14T21:19:29.045Z,3.10
2023-02-14T21:21:56.071Z,3.10
2023-02-14T21:24:24.462Z,3.10
2023-02-14T21:26:51.475Z,3.00
2023-02-14T21:29:18.501Z,3.00
2023-02-14T21:31:45.520Z,2.80
2023-02-14T21:34:14.152Z,2.80
2023-02-14T21:36:41.082Z,2.80
2023-02-14T21:39:08.238Z,2.80
2023-02-14T21:41:35.724Z,2.70
2023-02-14T21:44:03.332Z,2.60
2023-02-14T21:46:31.575Z,2.50
2023-02-14T21:49:18.303Z,2.40
2023-02-14T21:51:45.688Z,2.40
2023-02-14T21:54:12.953Z,2.30
2023-02-14T21:56:41.417Z,2.30
2023-02-14T21:59:09.762Z,2.20
2023-02-14T22:01:37.789Z,2.10
2023-02-14T22:04:07.797Z,2.20
2023-02-14T22:06:35.248Z,2.10
2023-02-14T22:09:02.169Z,2.10
2023-02-14T22:11:29.854Z,2.10
2023-02-14T22:13:58.131Z,2.00
2023-02-14T22:16:25.130Z,2.00
2023-02-14T22:18:52.102Z,1.90
2023-02-14T22:21:20.727Z,2.00
2023-02-14T22:23:47.696Z,2.00
2023-02-14T22:26:16.799Z,2.00
2023-02-14T22:28:44.776Z,2.00
2023-02-14T22:31:12.293Z,1.60
2023-02-14T22:33:39.569Z,2.00
2023-02-14T22:36:06.928Z,1.90
2023-02-14T22:38:34.261Z,1.90
2023-02-14T22:41:11.859Z,1.80
2023-02-14T22:43:39.111Z,1.80
2023-02-14T22:46:07.621Z,1.80
2023-02-14T22:48:35.183Z,1.80
2023-02-14T22:51:08.334Z,1.70
2023-02-14T22:53:35.796Z,1.70
2023-02-14T22:56:13.670Z,1.70
2023-02-14T22:58:40.666Z,1.80
2023-02-14T23:01:12.246Z,1.80
2023-02-14T23:03:39.206Z,1.90
2023-02-14T23:06:06.138Z,1.90
2023-02-14T23:08:33.091Z,1.90
2023-02-14T23:11:07.389Z,1.90
2023-02-14T23:13:53.408Z,1.90
2023-02-14T23:16:40.705Z,1.60
2023-02-14T23:19:33.841Z,1.90
2023-02-14T23:22:05.543Z,1.90
2023-02-14T23:24:32.494Z,1.90
2023-02-14T23:26:59.607Z,1.80
2023-02-14T23:29:26.532Z,1.90
2023-02-14T23:31:53.648Z,1.80
2023-02-14T23:34:20.651Z,1.80
2023-02-14T23:36:47.672Z,1.80
2023-02-14T23:39:14.652Z,1.80
2023-02-14T23:41:47.533Z,1.30
2023-02-14T23:44:14.479Z,1.80
2023-02-14T23:46:41.666Z,1.80
2023-02-14T23:49:08.856Z,1.70
2023-02-14T23:51:36.081Z,1.70
2023-02-14T23:54:03.412Z,1.60
2023-02-14T23:56:30.382Z,1.60
2023-02-14T23:58:57.298Z,1.60
